createdAt,value
2019-05-03T00:01:36.459Z,101168.28
2019-05-03T00:04:11.914Z,101175.02
2019-05-03T00:06:44.387Z,101170.00
2019-05-03T00:09:17.487Z,101168.41
2019-05-03T00:11:50.452Z,101176.77
2019-05-03T00:14:25.691Z,101176.77
2019-05-03T00:16:58.643Z,101178.48
2019-05-03T00:19:32.765Z,101177.62
2019-05-03T00:22:06.010Z,101182.27
2019-05-03T00:24:39.086Z,101181.41
2019-05-03T00:27:12.483Z,101180.80
2019-05-03T00:29:46.086Z,101178.59
2019-05-03T00:32:19.088Z,101179.45
2019-05-03T00:34:52.483Z,101179.45
2019-05-03T00:37:25.485Z,101181.30
2019-05-03T00:39:58.533Z,101181.30
2019-05-03T00:42:31.809Z,101176.77
2019-05-03T00:45:07.116Z,101179.58
2019-05-03T00:47:42.029Z,101179.33
2019-05-03T00:50:15.366Z,101174.55
2019-05-03T00:52:48.414Z,101177.86
2019-05-03T00:55:22.034Z,101190.34
2019-05-03T00:57:55.243Z,101184.48
2019-05-03T01:00:28.650Z,101182.64
2019-05-03T01:03:02.214Z,101184.85
2019-05-03T01:05:35.313Z,101183.01
2019-05-03T01:08:08.411Z,101187.89
2019-05-03T01:10:42.107Z,101192.05
2019-05-03T01:13:15.230Z,101188.64
2019-05-03T01:15:48.570Z,101188.88
2019-05-03T01:18:21.893Z,101186.67
2019-05-03T01:20:55.381Z,101192.65
2019-05-03T01:23:28.358Z,101201.44
2019-05-03T01:26:02.448Z,101201.44
2019-05-03T01:28:35.808Z,101200.20
2019-05-03T01:31:09.058Z,101200.20
2019-05-03T01:33:42.619Z,101200.78
2019-05-03T01:36:15.753Z,101201.25
2019-05-03T01:38:48.830Z,101200.08
2019-05-03T01:41:22.364Z,101200.27
2019-05-03T01:43:55.322Z,101194.83
2019-05-03T01:46:28.601Z,101187.85
2019-05-03T01:49:01.694Z,101191.47
2019-05-03T01:51:34.714Z,101193.97
2019-05-03T01:54:07.864Z,101195.86
2019-05-03T01:56:49.982Z,101195.77
2019-05-03T01:59:15.640Z,101200.11
2019-05-03T02:01:48.706Z,101199.55
2019-05-03T02:04:21.764Z,101199.55
2019-05-03T02:06:54.752Z,101207.16
2019-05-03T02:09:27.772Z,101207.16
2019-05-03T02:12:02.131Z,101208.88
2019-05-03T02:14:35.200Z,101214.11
2019-05-03T02:17:08.182Z,101214.11
2019-05-03T02:19:42.135Z,101210.78
2019-05-03T02:22:15.340Z,101206.30
2019-05-03T02:24:48.357Z,101206.30
2019-05-03T02:27:22.011Z,101210.97
2019-05-03T02:29:55.076Z,101212.10
2019-05-03T02:32:28.027Z,101219.95
2019-05-03T02:35:02.775Z,101219.09
2019-05-03T02:37:35.708Z,101227.91
2019-05-03T02:40:08.984Z,101227.91
2019-05-03T02:42:42.033Z,101227.73
2019-05-03T02:45:15.541Z,101220.31
2019-05-03T02:47:48.672Z,101220.31
2019-05-03T02:50:21.716Z,101226.55
2019-05-03T02:52:55.341Z,101223.24
2019-05-03T02:55:28.735Z,101223.24
2019-05-03T02:58:01.714Z,101212.84
2019-05-03T03:01:06.811Z,101218.95
2019-05-03T03:03:39.903Z,101215.11
2019-05-03T03:06:15.737Z,101218.10
2019-05-03T03:08:50.160Z,101218.10
2019-05-03T03:11:26.112Z,101228.30
2019-05-03T03:14:00.776Z,101221.62
2019-05-03T03:16:36.134Z,101221.62
2019-05-03T03:19:12.465Z,101229.84
2019-05-03T03:21:47.075Z,101229.84
2019-05-03T03:24:25.641Z,101232.80
2019-05-03T03:26:58.417Z,101223.34
2019-05-03T03:29:35.885Z,101237.09
2019-05-03T03:32:20.374Z,101235.72
2019-05-03T03:35:11.694Z,101235.72
2019-05-03T03:37:41.077Z,101233.63
2019-05-03T03:40:16.224Z,101245.92
2019-05-03T03:42:51.511Z,101245.92
2019-05-03T03:45:25.411Z,101256.66
2019-05-03T03:48:01.075Z,101263.20
2019-05-03T03:50:35.951Z,101263.20
2019-05-03T03:53:10.873Z,101262.85
2019-05-03T03:55:46.965Z,101258.20
2019-05-03T03:58:22.908Z,101260.84
2019-05-03T04:00:55.493Z,101257.69
2019-05-03T04:03:28.681Z,101260.74
2019-05-03T04:06:01.744Z,101260.74
2019-05-03T04:08:36.003Z,101258.69
2019-05-03T04:11:09.653Z,101268.73
2019-05-03T04:13:45.224Z,101266.91
2019-05-03T04:16:21.092Z,101266.91
2019-05-03T04:18:55.131Z,101274.30
2019-05-03T04:21:28.427Z,101274.30
2019-05-03T04:24:01.527Z,101270.64
2019-05-03T04:26:35.814Z,101284.74
2019-05-03T04:29:09.921Z,101286.08
2019-05-03T04:31:45.605Z,101289.77
2019-05-03T04:34:18.021Z,101289.77
2019-05-03T04:36:51.250Z,101288.21
2019-05-03T04:39:25.633Z,101287.66
2019-05-03T04:41:58.718Z,101297.94
2019-05-03T04:44:31.802Z,101297.94
2019-05-03T04:47:06.753Z,101309.98
2019-05-03T04:49:39.572Z,101309.98
2019-05-03T04:52:12.524Z,101308.17
2019-05-03T04:54:45.503Z,101324.14
2019-05-03T04:57:35.213Z,101324.91
2019-05-03T04:59:55.849Z,101325.01
2019-05-03T05:02:27.893Z,101318.98
2019-05-03T05:05:00.800Z,101318.98
2019-05-03T05:07:35.038Z,101327.59
2019-05-03T05:10:08.164Z,101327.59
2019-05-03T05:12:41.337Z,101326.06
2019-05-03T05:15:15.653Z,101326.06
2019-05-03T05:17:49.243Z,101334.34
2019-05-03T05:20:22.144Z,101326.63
2019-05-03T05:22:55.091Z,101335.97
2019-05-03T05:25:27.960Z,101332.43
2019-05-03T05:28:00.854Z,101340.89
2019-05-03T05:30:35.333Z,101340.89
2019-05-03T05:33:08.513Z,101331.73
2019-05-03T05:35:41.409Z,101333.52
2019-05-03T05:38:14.976Z,101352.63
2019-05-03T05:40:48.077Z,101357.74
2019-05-03T05:43:21.010Z,101359.73
2019-05-03T05:45:55.642Z,101355.48
2019-05-03T05:48:28.723Z,101362.68
2019-05-03T05:51:01.759Z,101355.80
2019-05-03T05:53:35.883Z,101355.80
2019-05-03T05:56:08.967Z,101358.38
2019-05-03T05:58:41.895Z,101363.47
2019-05-03T06:01:14.893Z,101362.67
2019-05-03T06:03:48.030Z,101362.67
2019-05-03T06:06:20.959Z,101359.02
2019-05-03T06:08:54.776Z,101359.02
2019-05-03T06:11:27.730Z,101373.00
2019-05-03T06:14:00.675Z,101377.77
2019-05-03T06:16:34.858Z,101375.69
2019-05-03T06:19:07.969Z,101369.81
2019-05-03T06:21:40.977Z,101376.16
2019-05-03T06:24:14.782Z,101374.26
2019-05-03T06:26:47.825Z,101376.24
2019-05-03T06:29:20.850Z,101370.47
2019-05-03T06:31:55.044Z,101380.50
2019-05-03T06:34:28.479Z,101380.50
2019-05-03T06:37:01.376Z,101381.11
2019-05-03T06:39:35.233Z,101381.84
2019-05-03T06:42:09.935Z,101372.16
2019-05-03T06:44:45.368Z,101372.16
2019-05-03T06:47:17.866Z,101369.13
2019-05-03T06:49:50.848Z,101369.13
2019-05-03T06:52:27.663Z,101376.48
2019-05-03T06:55:00.270Z,101377.59
2019-05-03T06:57:35.314Z,101379.68
2019-05-03T07:00:08.651Z,101371.31
2019-05-03T07:02:41.544Z,101371.31
2019-05-03T07:05:15.309Z,101369.44
2019-05-03T07:07:48.361Z,101385.05
2019-05-03T07:10:21.397Z,101385.05
2019-05-03T07:12:54.753Z,101387.80
2019-05-03T07:15:28.186Z,101384.16
2019-05-03T07:18:01.052Z,101379.36
2019-05-03T07:20:35.308Z,101377.41
2019-05-03T07:23:08.196Z,101374.19
2019-05-03T07:25:41.345Z,101386.33
2019-05-03T07:28:15.036Z,101381.79
2019-05-03T07:30:48.026Z,101381.79
2019-05-03T07:33:20.963Z,101385.33
2019-05-03T07:35:54.777Z,101393.66
2019-05-03T07:38:27.734Z,101401.40
2019-05-03T07:41:00.602Z,101392.61
2019-05-03T07:43:35.861Z,101396.19
2019-05-03T07:46:08.353Z,101396.19
2019-05-03T07:48:41.230Z,101395.84
2019-05-03T07:51:14.553Z,101399.04
2019-05-03T07:53:47.569Z,101397.50
2019-05-03T07:56:20.732Z,101397.50
2019-05-03T07:59:02.205Z,101403.52
2019-05-03T08:01:28.529Z,101399.84
2019-05-03T08:04:01.415Z,101381.58
2019-05-03T08:06:34.707Z,101385.37
2019-05-03T08:09:08.144Z,101386.91
2019-05-03T08:11:41.322Z,101387.61
2019-05-03T08:14:17.686Z,101391.66
2019-05-03T08:16:48.842Z,101391.66
2019-05-03T08:19:24.492Z,101391.78
2019-05-03T08:21:56.827Z,101406.23
2019-05-03T08:24:29.770Z,101410.19
2019-05-03T08:27:04.820Z,101428.56
2019-05-03T08:29:38.555Z,101437.83
2019-05-03T08:32:11.469Z,101441.32
2019-05-03T08:34:45.278Z,101441.32
2019-05-03T08:37:18.336Z,101437.25
2019-05-03T08:39:51.777Z,101409.31
2019-05-03T08:42:25.493Z,101414.18
2019-05-03T08:44:58.663Z,101414.18
2019-05-03T08:47:31.625Z,101400.68
2019-05-03T08:50:05.635Z,101385.70
2019-05-03T08:52:39.004Z,101385.70
2019-05-03T08:55:12.285Z,101391.51
2019-05-03T08:57:45.292Z,101391.51
2019-05-03T09:00:18.348Z,101376.98
2019-05-03T09:02:51.339Z,101376.98
2019-05-03T09:05:25.043Z,101376.81
2019-05-03T09:07:58.126Z,101369.25
2019-05-03T09:10:31.426Z,101368.38
2019-05-03T09:13:06.392Z,101362.20
2019-05-03T09:15:39.345Z,101362.20
2019-05-03T09:18:15.146Z,101360.40
2019-05-03T09:20:47.319Z,101380.20
2019-05-03T09:23:23.256Z,101386.84
2019-05-03T09:25:55.153Z,101400.67
2019-05-03T09:28:29.267Z,101400.67
2019-05-03T09:31:02.215Z,101387.56
2019-05-03T09:33:37.233Z,101375.39
2019-05-03T09:36:10.195Z,101375.39
2019-05-03T09:38:45.555Z,101357.72
2019-05-03T09:41:18.053Z,101357.72
2019-05-03T09:43:51.059Z,101370.08
2019-05-03T09:46:32.651Z,101370.13
2019-05-03T09:49:13.932Z,101370.13
2019-05-03T09:51:48.681Z,101378.35
2019-05-03T09:54:36.735Z,101374.89
2019-05-03T09:57:30.489Z,101357.97
2019-05-03T10:00:13.297Z,101376.43
2019-05-03T10:02:55.349Z,101376.43
2019-05-03T10:05:40.757Z,101360.08
2019-05-03T10:08:29.464Z,101358.44
2019-05-03T10:11:11.036Z,101358.44
2019-05-03T10:13:51.414Z,101352.85
2019-05-03T10:16:32.330Z,101348.00
2019-05-03T10:19:16.138Z,101342.55
2019-05-03T10:21:57.719Z,101346.16
2019-05-03T10:24:38.793Z,101335.88
2019-05-03T10:27:20.658Z,101335.88
2019-05-03T10:30:09.755Z,101339.48
2019-05-03T10:32:56.255Z,101350.86
2019-05-03T10:35:44.995Z,101341.02
2019-05-03T10:38:30.805Z,101341.02
2019-05-03T10:41:27.397Z,101329.15
2019-05-03T10:44:26.169Z,101330.23
2019-05-03T10:49:51.912Z,101323.05
2019-05-03T10:52:29.266Z,101321.64
2019-05-03T10:55:10.234Z,101332.50
2019-05-03T10:57:56.153Z,101325.18
2019-05-03T11:00:49.675Z,101344.88
2019-05-03T11:03:14.863Z,101329.59
2019-05-03T11:05:50.797Z,101334.56
2019-05-03T11:08:37.045Z,101334.56
2019-05-03T11:11:20.668Z,101326.01
2019-05-03T11:14:28.698Z,101327.05
2019-05-03T11:17:14.827Z,101326.46
2019-05-03T11:19:57.994Z,101326.46
2019-05-03T11:22:45.254Z,101332.14
2019-05-03T11:25:25.020Z,101342.21
2019-05-03T11:28:25.127Z,101342.21
2019-05-03T11:32:09.296Z,101339.77
2019-05-03T11:34:16.837Z,101339.77
2019-05-03T11:37:01.298Z,101323.06
2019-05-03T11:39:38.660Z,101323.06
2019-05-03T11:42:15.327Z,101311.66
2019-05-03T11:44:57.365Z,101306.98
2019-05-03T11:47:38.016Z,101305.41
2019-05-03T11:50:22.547Z,101303.89
2019-05-03T11:53:00.876Z,101306.19
2019-05-03T11:55:42.728Z,101306.19
2019-05-03T11:58:27.110Z,101301.81
2019-05-03T12:01:13.032Z,101299.44
2019-05-03T12:03:45.193Z,101318.30
2019-05-03T12:06:24.783Z,101301.63
2019-05-03T12:09:05.619Z,101301.63
2019-05-03T12:11:38.544Z,101291.91
2019-05-03T12:14:15.200Z,101286.89
2019-05-03T12:19:31.244Z,101291.74
2019-05-03T12:22:07.872Z,101291.74
2019-05-03T12:24:46.056Z,101308.68
2019-05-03T12:27:22.065Z,101304.75
2019-05-03T12:29:57.440Z,101304.78
2019-05-03T12:32:34.970Z,101286.28
2019-05-03T12:35:15.338Z,101286.28
2019-05-03T12:37:55.586Z,101278.09
2019-05-03T12:40:29.753Z,101272.84
2019-05-03T12:43:09.275Z,101272.84
2019-05-03T12:45:50.906Z,101287.38
2019-05-03T12:48:32.464Z,101295.16
2019-05-03T12:51:15.361Z,101294.55
2019-05-03T12:53:59.967Z,101291.66
2019-05-03T12:56:36.622Z,101289.38
2019-05-03T12:59:09.577Z,101289.38
2019-05-03T13:01:45.131Z,101286.53
2019-05-03T13:04:17.082Z,101292.05
2019-05-03T13:06:49.967Z,101292.05
2019-05-03T13:09:25.094Z,101292.91
2019-05-03T13:11:59.017Z,101272.53
2019-05-03T13:14:32.145Z,101272.53
2019-05-03T13:17:04.987Z,101260.91
2019-05-03T13:19:37.809Z,101255.27
2019-05-03T13:22:10.680Z,101254.58
2019-05-03T13:24:45.252Z,101255.97
2019-05-03T13:27:18.204Z,101248.13
2019-05-03T13:29:51.066Z,101257.45
2019-05-03T13:32:24.102Z,101262.16
2019-05-03T13:34:56.938Z,101256.92
2019-05-03T13:37:29.954Z,101262.25
2019-05-03T13:40:03.213Z,101265.31
2019-05-03T13:42:36.069Z,101265.31
2019-05-03T13:45:09.434Z,101260.76
2019-05-03T13:47:44.543Z,101259.97
2019-05-03T13:50:17.008Z,101259.97
2019-05-03T13:52:49.836Z,101253.66
2019-05-03T13:55:24.529Z,101259.88
2019-05-03T13:57:57.238Z,101259.88
2019-05-03T14:00:30.171Z,101258.90
2019-05-03T14:03:04.556Z,101260.26
2019-05-03T14:05:37.545Z,101262.30
2019-05-03T14:08:10.698Z,101250.92
2019-05-03T14:10:45.451Z,101244.09
2019-05-03T14:13:18.426Z,101249.41
2019-05-03T14:15:51.380Z,101243.11
2019-05-03T14:18:25.595Z,101243.11
2019-05-03T14:21:01.658Z,101251.99
2019-05-03T14:23:34.743Z,101247.48
2019-05-03T14:26:07.709Z,101246.81
2019-05-03T14:28:40.545Z,101233.98
2019-05-03T14:31:14.494Z,101231.17
2019-05-03T14:33:47.717Z,101215.60
2019-05-03T14:36:20.556Z,101215.60
2019-05-03T14:38:54.855Z,101211.00
2019-05-03T14:41:27.937Z,101211.00
2019-05-03T14:44:01.034Z,101195.92
2019-05-03T14:46:36.180Z,101195.92
2019-05-03T14:49:08.626Z,101194.39
2019-05-03T14:51:41.484Z,101196.73
2019-05-03T14:54:14.567Z,101196.73
2019-05-03T14:56:47.619Z,101193.23
2019-05-03T14:59:20.704Z,101186.27
2019-05-03T15:01:55.183Z,101186.27
2019-05-03T15:04:28.080Z,101192.38
2019-05-03T15:07:01.302Z,101192.38
2019-05-03T15:09:35.334Z,101192.06
2019-05-03T15:12:08.300Z,101191.81
2019-05-03T15:14:41.142Z,101189.01
2019-05-03T15:17:14.092Z,101189.01
2019-05-03T15:19:46.924Z,101186.85
2019-05-03T15:22:19.799Z,101188.39
2019-05-03T15:24:54.417Z,101190.05
2019-05-03T15:27:27.679Z,101182.30
2019-05-03T15:30:01.073Z,101192.20
2019-05-03T15:32:35.385Z,101192.20
2019-05-03T15:35:08.758Z,101180.82
2019-05-03T15:37:41.752Z,101180.82
2019-05-03T15:40:15.594Z,101178.92
2019-05-03T15:42:48.634Z,101181.17
2019-05-03T15:45:21.553Z,101178.65
2019-05-03T15:47:54.983Z,101182.88
2019-05-03T15:50:28.003Z,101188.16
2019-05-03T15:53:00.857Z,101177.34
2019-05-03T15:55:33.773Z,101177.34
2019-05-03T15:58:06.626Z,101182.89
2019-05-03T16:00:39.547Z,101185.05
2019-05-03T16:03:14.419Z,101180.95
2019-05-03T16:05:47.137Z,101180.95
2019-05-03T16:08:20.056Z,101174.84
2019-05-03T16:10:54.778Z,101174.84
2019-05-03T16:13:27.748Z,101171.73
2019-05-03T16:16:00.664Z,101174.02
2019-05-03T16:18:35.200Z,101172.31
2019-05-03T16:21:08.143Z,101172.31
2019-05-03T16:23:40.998Z,101172.76
2019-05-03T16:26:14.369Z,101174.18
2019-05-03T16:28:47.216Z,101176.69
2019-05-03T16:31:20.257Z,101176.69
2019-05-03T16:33:54.942Z,101173.84
2019-05-03T16:36:28.033Z,101178.69
2019-05-03T16:39:00.981Z,101184.32
2019-05-03T16:41:35.407Z,101184.32
2019-05-03T16:44:08.469Z,101180.03
2019-05-03T16:46:41.480Z,101180.23
2019-05-03T16:49:15.716Z,101177.78
2019-05-03T16:51:48.704Z,101175.08
2019-05-03T16:54:21.861Z,101173.44
2019-05-03T16:56:55.016Z,101173.44
2019-05-03T16:59:27.905Z,101173.25
2019-05-03T17:02:00.816Z,101178.38
2019-05-03T17:04:34.556Z,101178.38
2019-05-03T17:07:07.602Z,101161.97
2019-05-03T17:09:40.585Z,101161.97
2019-05-03T17:12:15.163Z,101169.56
2019-05-03T17:14:48.234Z,101167.23
2019-05-03T17:17:21.305Z,101159.16
2019-05-03T17:19:55.133Z,101159.16
2019-05-03T17:22:28.301Z,101158.79
2019-05-03T17:25:04.266Z,101160.73
2019-05-03T17:27:37.051Z,101160.73
2019-05-03T17:30:10.872Z,101147.64
2019-05-03T17:32:44.624Z,101147.64
2019-05-03T17:35:17.859Z,101153.88
2019-05-03T17:37:50.854Z,101155.72
2019-05-03T17:40:23.971Z,101152.30
2019-05-03T17:42:56.940Z,101152.30
2019-05-03T17:45:30.267Z,101156.72
2019-05-03T17:48:04.493Z,101151.58
2019-05-03T17:50:37.774Z,101143.05
2019-05-03T17:53:10.724Z,101146.72
2019-05-03T17:55:44.563Z,101146.72
2019-05-03T17:58:17.642Z,101148.80
2019-05-03T18:00:51.012Z,101159.83
2019-05-03T18:03:25.783Z,101162.39
2019-05-03T18:05:58.762Z,101162.39
2019-05-03T18:08:31.843Z,101162.45
2019-05-03T18:11:05.224Z,101162.45
2019-05-03T18:13:38.341Z,101152.89
2019-05-03T18:16:11.654Z,101150.34
2019-05-03T18:18:45.431Z,101154.45
2019-05-03T18:21:18.817Z,101146.17
2019-05-03T18:23:51.766Z,101143.11
2019-05-03T18:26:25.065Z,101142.73
2019-05-03T18:28:58.097Z,101143.34
2019-05-03T18:31:31.201Z,101136.11
2019-05-03T18:34:06.324Z,101140.52
2019-05-03T18:36:38.903Z,101140.52
2019-05-03T18:39:11.750Z,101145.53
2019-05-03T18:41:45.178Z,101143.58
2019-05-03T18:44:18.275Z,101138.20
2019-05-03T18:46:51.161Z,101138.69
2019-05-03T18:49:24.805Z,101136.13
2019-05-03T18:51:57.828Z,101146.64
2019-05-03T18:54:30.683Z,101142.84
2019-05-03T18:57:05.080Z,101141.01
2019-05-03T18:59:38.027Z,101141.01
2019-05-03T19:02:11.123Z,101143.85
2019-05-03T19:04:45.223Z,101139.68
2019-05-03T19:07:18.644Z,101141.02
2019-05-03T19:09:51.490Z,101150.20
2019-05-03T19:12:26.411Z,101153.27
2019-05-03T19:14:59.536Z,101157.23
2019-05-03T19:17:32.456Z,101153.01
2019-05-03T19:20:05.853Z,101153.01
2019-05-03T19:22:38.882Z,101152.06
2019-05-03T19:25:11.935Z,101149.71
2019-05-03T19:27:45.365Z,101143.22
2019-05-03T19:30:18.757Z,101143.22
2019-05-03T19:32:51.976Z,101144.41
2019-05-03T19:35:27.721Z,101142.44
2019-05-03T19:37:59.941Z,101138.78
2019-05-03T19:40:34.938Z,101138.78
2019-05-03T19:43:07.469Z,101133.41
2019-05-03T19:45:40.390Z,101134.38
2019-05-03T19:48:14.755Z,101135.50
2019-05-03T19:50:48.267Z,101131.47
2019-05-03T19:53:21.450Z,101131.47
2019-05-03T19:55:55.299Z,101130.73
2019-05-03T19:58:28.413Z,101130.73
2019-05-03T20:01:01.665Z,101122.77
2019-05-03T20:03:35.275Z,101126.28
2019-05-03T20:06:08.257Z,101127.85
2019-05-03T20:08:41.163Z,101132.73
2019-05-03T20:11:14.814Z,101126.36
2019-05-03T20:13:48.123Z,101126.36
2019-05-03T20:16:21.609Z,101127.55
2019-05-03T20:18:55.554Z,101127.55
2019-05-03T20:21:28.715Z,101126.09
2019-05-03T20:24:02.088Z,101126.09
2019-05-03T20:26:34.992Z,101111.58
2019-05-03T20:29:07.897Z,101119.87
2019-05-03T20:31:40.880Z,101121.58
2019-05-03T20:34:15.697Z,101114.23
2019-05-03T20:36:48.430Z,101113.86
2019-05-03T20:39:21.389Z,101113.86
2019-05-03T20:41:55.133Z,101110.80
2019-05-03T20:44:28.104Z,101101.52
2019-05-03T20:47:01.219Z,101113.64
2019-05-03T20:49:34.766Z,101108.27
2019-05-03T20:52:07.785Z,101096.33
2019-05-03T20:54:40.694Z,101099.98
2019-05-03T20:57:14.467Z,101096.22
2019-05-03T20:59:51.679Z,101100.88
2019-05-03T21:02:22.734Z,101100.88
2019-05-03T21:04:55.939Z,101095.63
2019-05-03T21:07:29.061Z,101096.70
2019-05-03T21:10:02.059Z,101094.73
2019-05-03T21:12:35.009Z,101092.64
2019-05-03T21:15:08.368Z,101092.64
2019-05-03T21:17:41.510Z,101090.47
2019-05-03T21:20:14.817Z,101094.69
2019-05-03T21:22:47.825Z,101086.33
2019-05-03T21:25:20.960Z,101086.33
2019-05-03T21:27:55.513Z,101093.80
2019-05-03T21:30:28.627Z,101093.80
2019-05-03T21:33:01.499Z,101091.97
2019-05-03T21:35:41.554Z,101093.20
2019-05-03T21:38:09.424Z,101096.62
2019-05-03T21:40:42.727Z,101101.41
2019-05-03T21:43:15.671Z,101094.09
2019-05-03T21:45:48.574Z,101094.09
2019-05-03T21:48:21.764Z,101087.90
2019-05-03T21:50:55.418Z,101087.90
2019-05-03T21:53:28.367Z,101091.44
2019-05-03T21:56:01.313Z,101078.77
2019-05-03T21:58:35.285Z,101085.13
2019-05-03T22:01:08.367Z,101085.13
2019-05-03T22:03:41.354Z,101081.11
2019-05-03T22:06:15.442Z,101081.22
2019-05-03T22:08:49.735Z,101082.05
2019-05-03T22:11:22.766Z,101082.16
2019-05-03T22:13:57.068Z,101079.09
2019-05-03T22:16:30.358Z,101072.69
2019-05-03T22:19:03.460Z,101078.91
2019-05-03T22:21:36.936Z,101078.91
2019-05-03T22:24:10.202Z,101076.56
2019-05-03T22:26:45.255Z,101072.42
2019-05-03T22:29:18.149Z,101060.23
2019-05-03T22:31:51.085Z,101060.23
2019-05-03T22:34:25.681Z,101071.19
2019-05-03T22:36:59.160Z,101072.31
2019-05-03T22:39:32.285Z,101070.83
2019-05-03T22:42:06.479Z,101070.83
2019-05-03T22:44:39.445Z,101064.86
2019-05-03T22:47:14.763Z,101055.94
2019-05-03T22:49:47.771Z,101059.70
2019-05-03T22:52:20.766Z,101061.27
2019-05-03T22:54:55.506Z,101055.91
2019-05-03T22:57:28.961Z,101044.60
2019-05-03T23:00:06.049Z,101044.60
2019-05-03T23:02:37.010Z,101039.97
2019-05-03T23:05:10.375Z,101037.40
2019-05-03T23:07:44.243Z,101039.82
2019-05-03T23:10:18.081Z,101036.50
2019-05-03T23:12:51.054Z,101034.41
2019-05-03T23:15:24.363Z,101029.11
2019-05-03T23:17:57.500Z,101038.28
2019-05-03T23:20:30.471Z,101036.41
2019-05-03T23:23:05.264Z,101033.73
2019-05-03T23:25:37.980Z,101030.99
2019-05-03T23:28:10.899Z,101038.71
2019-05-03T23:30:44.077Z,101038.45
2019-05-03T23:33:16.994Z,101038.45
2019-05-03T23:35:50.030Z,101026.33
2019-05-03T23:38:24.671Z,101023.54
2019-05-03T23:40:58.140Z,101027.56
2019-05-03T23:43:31.048Z,101027.56
2019-05-03T23:46:05.068Z,101025.42
2019-05-03T23:48:38.370Z,101025.42
2019-05-03T23:51:11.395Z,101024.59
2019-05-03T23:53:44.774Z,101019.94
2019-05-03T23:56:17.666Z,101019.19
2019-05-03T23:58:50.539Z,101010.13
